<?xml version="1.0" encoding="UTF-8" standalone="no" ?>
<gpx xmlns="http://www.topografix.com/GPX/1/1" xmlns:xsi="http://www.w3.org/2001/XMLSchema-instance" xsi:schemaLocation="http://www.topografix.com/GPX/1/1 http://www.topografix.com/GPX/1/1/gpx.xsd" version="1.1" creator="VisuGPX - https://www.visugpx.com">
  <metadata>
    <name>Argentina</name>
    <desc><![CDATA[Downloaded from eMap Software Version 2.75]]></desc>
  </metadata>
  <trk>
    <name><![CDATA[Argentina_36]]></name>
    <extensions>
      <line xmlns="http://www.topografix.com/GPX/gpx_style/0/2">
        <color>ff0000</color>
        <opacity>0.78</opacity>
        <width>0.6000</width>
      </line>
    </extensions>
    <trkseg>
      <trkpt lat="-27.65928" lon="-62.43599">
        <ele>131.837891</ele>
        <time>2005-12-12T20:24:26Z</time>
      </trkpt>
      <trkpt lat="-27.65909" lon="-62.4347">
        <ele>131.837891</ele>
        <time>2005-12-12T20:24:32Z</time>
      </trkpt>
      <trkpt lat="-27.65823" lon="-62.43258">
        <ele>131.837891</ele>
        <time>2005-12-12T20:24:45Z</time>
      </trkpt>
      <trkpt lat="-27.65797" lon="-62.43183">
        <ele>131.837891</ele>
        <time>2005-12-12T20:24:52Z</time>
      </trkpt>
      <trkpt lat="-27.65795" lon="-62.43017">
        <ele>131.837891</ele>
        <time>2005-12-12T20:25:07Z</time>
      </trkpt>
      <trkpt lat="-27.65733" lon="-62.4285">
        <ele>131.837891</ele>
        <time>2005-12-12T20:25:21Z</time>
      </trkpt>
      <trkpt lat="-27.65645" lon="-62.42621">
        <ele>131.837891</ele>
        <time>2005-12-12T20:25:35Z</time>
      </trkpt>
      <trkpt lat="-27.6554" lon="-62.42305">
        <ele>131.837891</ele>
        <time>2005-12-12T20:25:51Z</time>
      </trkpt>
      <trkpt lat="-27.65458" lon="-62.42045">
        <ele>131.837891</ele>
        <time>2005-12-12T20:26:04Z</time>
      </trkpt>
      <trkpt lat="-27.65328" lon="-62.41923">
        <ele>131.837891</ele>
        <time>2005-12-12T20:26:16Z</time>
      </trkpt>
      <trkpt lat="-27.65124" lon="-62.41782">
        <ele>131.837891</ele>
        <time>2005-12-12T20:26:35Z</time>
      </trkpt>
      <trkpt lat="-27.65029" lon="-62.41726">
        <ele>131.837891</ele>
        <time>2005-12-12T20:26:50Z</time>
      </trkpt>
      <trkpt lat="-27.64828" lon="-62.41601">
        <ele>130.395996</ele>
        <time>2005-12-12T20:27:11Z</time>
      </trkpt>
      <trkpt lat="-27.64716" lon="-62.41539">
        <ele>129.915283</ele>
        <time>2005-12-12T20:27:24Z</time>
      </trkpt>
      <trkpt lat="-27.646" lon="-62.41477">
        <ele>129.915283</ele>
        <time>2005-12-12T20:27:38Z</time>
      </trkpt>
      <trkpt lat="-27.6457" lon="-62.41458">
        <ele>129.915283</ele>
        <time>2005-12-12T20:27:43Z</time>
      </trkpt>
      <trkpt lat="-27.6454" lon="-62.41425">
        <ele>129.915283</ele>
        <time>2005-12-12T20:27:53Z</time>
      </trkpt>
      <trkpt lat="-27.64566" lon="-62.41382">
        <ele>130.395996</ele>
        <time>2005-12-12T20:28:07Z</time>
      </trkpt>
      <trkpt lat="-27.64561" lon="-62.41359">
        <ele>131.3573</ele>
        <time>2005-12-12T20:28:18Z</time>
      </trkpt>
      <trkpt lat="-27.64497" lon="-62.41307">
        <ele>129.915283</ele>
        <time>2005-12-12T20:28:37Z</time>
      </trkpt>
      <trkpt lat="-27.64443" lon="-62.41262">
        <ele>129.434692</ele>
        <time>2005-12-12T20:29:09Z</time>
      </trkpt>
      <trkpt lat="-27.64452" lon="-62.41267">
        <ele>129.434692</ele>
        <time>2005-12-12T20:29:13Z</time>
      </trkpt>
      <trkpt lat="-27.64458" lon="-62.41275">
        <ele>129.915283</ele>
        <time>2005-12-12T20:29:17Z</time>
      </trkpt>
      <trkpt lat="-27.64476" lon="-62.41299">
        <ele>130.395996</ele>
        <time>2005-12-12T20:29:39Z</time>
      </trkpt>
      <trkpt lat="-27.64473" lon="-62.41305">
        <ele>144.815796</ele>
        <time>2005-12-12T20:40:36Z</time>
      </trkpt>
      <trkpt lat="-27.64592" lon="-62.41376">
        <ele>144.815796</ele>
        <time>2005-12-12T20:40:55Z</time>
      </trkpt>
      <trkpt lat="-27.64615" lon="-62.41389">
        <ele>144.815796</ele>
        <time>2005-12-12T20:41:10Z</time>
      </trkpt>
      <trkpt lat="-27.64626" lon="-62.4138">
        <ele>144.815796</ele>
        <time>2005-12-12T20:41:20Z</time>
      </trkpt>
    </trkseg>
  </trk>
</gpx>